Cosco Kaohsiung — VREM3 — position and weather

sailwx.info

Track history (hours):
 
Tides and Currents Weather Stations Pressure Air Temp Water Temp Dewpoint Dewpoint Depression Visibility Wind Speed Wind Dir Waves Ship Positions

Cosco Kaohsiung

Last reported at 2018-Jan-10 04:07 UTC. Time now 2018-Jan-18 13:59 UTC.
Position N 24°15' E 118°45'.
Warning: this ship's position is 8 days out of date.

Length 349 m; draft 11.3 m.

Type: Ship (hazmat cat A). MMSI: 477136800.

Date/timePositionNaut miles runAvg speedWind from/ knotsBaromVisibWave heightAir tempDewpointWater temp
2018-Jan-10 04:07N 24°15' E 118°45'213.2
2018-Jan-10 03:57N 24°13' E 118°44'913.0
2018-Jan-10 03:15N 24°07' E 118°37'312.9
2018-Jan-10 03:00N 24°05' E 118°34'612.9
2018-Jan-10 02:29N 24°01' E 118°28'612.4
2018-Jan-10 02:00N 23°57' E 118°23'612.5
2018-Jan-10 01:30N 23°53' E 118°18'  
2018-Jan-04 16:54N 01°15' E 104°05'815.8
2018-Jan-04 16:22N 01°13' E 103°57'514.5
2018-Jan-04 16:00N 01°11' E 103°52'4 8.6
2018-Jan-04 15:30N 01°13' E 103°48'3 5.3
2018-Jan-04 15:00N 01°15' E 103°47'0 0.1
2018-Jan-04 14:30N 01°15' E 103°47'0 0.0
2018-Jan-04 13:57N 01°15' E 103°47'0 0.0
2018-Jan-04 13:30N 01°15' E 103°47'0 0.0
2018-Jan-04 12:54N 01°15' E 103°47'0 0.2
2018-Jan-04 12:30N 01°15' E 103°47'0 0.1
2018-Jan-04 11:57N 01°15' E 103°47'0 0.0
2018-Jan-04 11:27N 01°15' E 103°47'0 0.0
2018-Jan-04 10:57N 01°15' E 103°47'0 0.0
2018-Jan-04 10:30N 01°15' E 103°47'0 0.0
2018-Jan-04 09:51N 01°15' E 103°47'0 0.0
2018-Jan-04 09:30N 01°15' E 103°47'0 0.1
2018-Jan-04 08:54N 01°15' E 103°47'0 0.2
2018-Jan-04 08:30N 01°15' E 103°47'0 0.0
2018-Jan-04 07:57N 01°15' E 103°47'0 0.0
2018-Jan-04 07:30N 01°15' E 103°47'0 0.1
2018-Jan-04 06:57N 01°15' E 103°47'0 0.1
2018-Jan-04 06:27N 01°15' E 103°47'0 0.0
2018-Jan-04 05:57N 01°15' E 103°47'0 0.0
2018-Jan-04 05:30N 01°15' E 103°47'0 0.0
2018-Jan-04 04:57N 01°15' E 103°47'0 0.0
2018-Jan-04 04:30N 01°15' E 103°47'0 0.0
2018-Jan-04 03:57N 01°15' E 103°47'0 0.0
2018-Jan-04 03:30N 01°15' E 103°47'0 0.1
2018-Jan-04 02:59N 01°15' E 103°47'1 2.0
2018-Jan-04 02:31N 01°15' E 103°46'2 3.5
2018-Jan-04 02:00N 01°15' E 103°44'510.6
2018-Jan-04 01:31N 01°12' E 103°40'4 7.8
2018-Jan-04 01:01N 01°12' E 103°36'3 6.6
2018-Jan-04 00:30N 01°11' E 103°33'2 4.9
2018-Jan-04 00:01N 01°11' E 103°30'611.3
2018-Jan-03 23:30N 01°12' E 103°25'815.5
2018-Jan-03 23:01N 01°17' E 103°18'  
Track history (hours):
 
Tides and Currents Weather Stations Pressure Air Temp Water Temp Dewpoint Dewpoint Depression Visibility Wind Speed Wind Dir Waves Ship Positions

Cosco Kaohsiung

Last reported at 2018-Jan-10 04:07 UTC. Time now 2018-Jan-18 13:59 UTC.
Position N 24°15' E 118°45'.
Warning: this ship's position is 8 days out of date.

Length 349 m; draft 11.3 m.

Type: Ship (hazmat cat A). MMSI: 477136800.

Date/timePositionNaut miles runAvg speedWind from/ knotsBaromVisibWave heightAir tempDewpointWater temp
2018-Jan-10 04:07N 24°15' E 118°45'213.2
2018-Jan-10 03:57N 24°13' E 118°44'913.0
2018-Jan-10 03:15N 24°07' E 118°37'312.9
2018-Jan-10 03:00N 24°05' E 118°34'612.9
2018-Jan-10 02:29N 24°01' E 118°28'612.4
2018-Jan-10 02:00N 23°57' E 118°23'612.5
2018-Jan-10 01:30N 23°53' E 118°18'  
2018-Jan-04 16:54N 01°15' E 104°05'815.8
2018-Jan-04 16:22N 01°13' E 103°57'514.5
2018-Jan-04 16:00N 01°11' E 103°52'4 8.6
2018-Jan-04 15:30N 01°13' E 103°48'3 5.3
2018-Jan-04 15:00N 01°15' E 103°47'0 0.1
2018-Jan-04 14:30N 01°15' E 103°47'0 0.0
2018-Jan-04 13:57N 01°15' E 103°47'0 0.0
2018-Jan-04 13:30N 01°15' E 103°47'0 0.0
2018-Jan-04 12:54N 01°15' E 103°47'0 0.2
2018-Jan-04 12:30N 01°15' E 103°47'0 0.1
2018-Jan-04 11:57N 01°15' E 103°47'0 0.0
2018-Jan-04 11:27N 01°15' E 103°47'0 0.0
2018-Jan-04 10:57N 01°15' E 103°47'0 0.0
2018-Jan-04 10:30N 01°15' E 103°47'0 0.0
2018-Jan-04 09:51N 01°15' E 103°47'0 0.0
2018-Jan-04 09:30N 01°15' E 103°47'0 0.1
2018-Jan-04 08:54N 01°15' E 103°47'0 0.2
2018-Jan-04 08:30N 01°15' E 103°47'0 0.0
2018-Jan-04 07:57N 01°15' E 103°47'0 0.0
2018-Jan-04 07:30N 01°15' E 103°47'0 0.1
2018-Jan-04 06:57N 01°15' E 103°47'0 0.1
2018-Jan-04 06:27N 01°15' E 103°47'0 0.0
2018-Jan-04 05:57N 01°15' E 103°47'0 0.0
2018-Jan-04 05:30N 01°15' E 103°47'0 0.0
2018-Jan-04 04:57N 01°15' E 103°47'0 0.0
2018-Jan-04 04:30N 01°15' E 103°47'0 0.0
2018-Jan-04 03:57N 01°15' E 103°47'0 0.0
2018-Jan-04 03:30N 01°15' E 103°47'0 0.1
2018-Jan-04 02:59N 01°15' E 103°47'1 2.0
2018-Jan-04 02:31N 01°15' E 103°46'2 3.5
2018-Jan-04 02:00N 01°15' E 103°44'510.6
2018-Jan-04 01:31N 01°12' E 103°40'4 7.8
2018-Jan-04 01:01N 01°12' E 103°36'3 6.6
2018-Jan-04 00:30N 01°11' E 103°33'2 4.9
2018-Jan-04 00:01N 01°11' E 103°30'611.3
2018-Jan-03 23:30N 01°12' E 103°25'815.5
2018-Jan-03 23:01N 01°17' E 103°18'  

Dump ship's entire track history